sensor_id;sensor_type;location;lat;lon;timestamp;temperature;humidity
33927;DHT22;20485;50.992;5.550;2023-07-13T00:31:49;15.10;99.90
33927;DHT22;20485;50.992;5.550;2023-07-13T00:34:15;15.10;99.90
33927;DHT22;20485;50.992;5.550;2023-07-13T00:36:40;15.10;99.90
33927;DHT22;20485;50.992;5.550;2023-07-13T00:39:06;15.00;99.90
33927;DHT22;20485;50.992;5.550;2023-07-13T00:41:33;15.00;99.90
33927;DHT22;20485;50.992;5.550;2023-07-13T00:43:59;14.90;99.90
33927;DHT22;20485;50.992;5.550;2023-07-13T00:46:33;14.90;99.90
33927;DHT22;20485;50.992;5.550;2023-07-13T00:49:01;15.00;99.90
33927;DHT22;20485;50.992;5.550;2023-07-13T00:51:35;14.90;99.90
33927;DHT22;20485;50.992;5.550;2023-07-13T00:54:05;14.90;99.90
33927;DHT22;20485;50.992;5.550;2023-07-13T00:56:33;14.80;99.90
33927;DHT22;20485;50.992;5.550;2023-07-13T00:59:00;14.80;99.90
33927;DHT22;20485;50.992;5.550;2023-07-13T01:01:27;14.80;99.90
33927;DHT22;20485;50.992;5.550;2023-07-13T01:03:53;14.70;99.90
33927;DHT22;20485;50.992;5.550;2023-07-13T01:06:19;14.70;99.90
33927;DHT22;20485;50.992;5.550;2023-07-13T01:08:45;14.60;99.90
33927;DHT22;20485;50.992;5.550;2023-07-13T01:11:11;14.60;99.90
33927;DHT22;20485;50.992;5.550;2023-07-13T01:13:36;14.60;99.90
33927;DHT22;20485;50.992;5.550;2023-07-13T01:16:11;14.60;99.90
33927;DHT22;20485;50.992;5.550;2023-07-13T01:18:38;14.50;99.90
33927;DHT22;20485;50.992;5.550;2023-07-13T01:21:04;14.50;99.90
33927;DHT22;20485;50.992;5.550;2023-07-13T01:23:31;14.50;99.90
33927;DHT22;20485;50.992;5.550;2023-07-13T01:25:57;14.50;99.90
33927;DHT22;20485;50.992;5.550;2023-07-13T01:28:25;14.40;99.90
33927;DHT22;20485;50.992;5.550;2023-07-13T01:30:54;14.40;99.90
33927;DHT22;20485;50.992;5.550;2023-07-13T01:33:20;14.40;99.90
33927;DHT22;20485;50.992;5.550;2023-07-13T01:35:46;14.40;99.90
33927;DHT22;20485;50.992;5.550;2023-07-13T01:38:16;14.30;99.90
33927;DHT22;20485;50.992;5.550;2023-07-13T01:40:43;14.30;99.90
33927;DHT22;20485;50.992;5.550;2023-07-13T01:43:09;14.30;99.90
33927;DHT22;20485;50.992;5.550;2023-07-13T01:45:35;14.30;99.90
33927;DHT22;20485;50.992;5.550;2023-07-13T01:48:01;14.30;99.90
33927;DHT22;20485;50.992;5.550;2023-07-13T01:50:27;14.20;99.90
33927;DHT22;20485;50.992;5.550;2023-07-13T01:52:53;14.20;99.90
33927;DHT22;20485;50.992;5.550;2023-07-13T01:55:20;14.20;99.90
33927;DHT22;20485;50.992;5.550;2023-07-13T01:57:46;14.20;99.90
33927;DHT22;20485;50.992;5.550;2023-07-13T02:00:12;14.10;99.90
33927;DHT22;20485;50.992;5.550;2023-07-13T02:02:38;14.20;99.90
33927;DHT22;20485;50.992;5.550;2023-07-13T02:05:05;14.10;99.90
33927;DHT22;20485;50.992;5.550;2023-07-13T02:07:30;14.10;99.90
33927;DHT22;20485;50.992;5.550;2023-07-13T02:09:56;14.10;99.90
33927;DHT22;20485;50.992;5.550;2023-07-13T02:57:27;13.90;99.90
33927;DHT22;20485;50.992;5.550;2023-07-13T02:59:53;13.90;99.90
33927;DHT22;20485;50.992;5.550;2023-07-13T03:02:20;13.90;99.90
33927;DHT22;20485;50.992;5.550;2023-07-13T03:04:45;13.90;99.90
33927;DHT22;20485;50.992;5.550;2023-07-13T03:07:11;13.90;99.90
33927;DHT22;20485;50.992;5.550;2023-07-13T03:09:37;13.90;99.90
33927;DHT22;20485;50.992;5.550;2023-07-13T03:12:03;13.90;99.90
33927;DHT22;20485;50.992;5.550;2023-07-13T03:14:29;13.90;99.90
33927;DHT22;20485;50.992;5.550;2023-07-13T03:16:56;13.90;99.90
33927;DHT22;20485;50.992;5.550;2023-07-13T03:19:22;13.90;99.90
33927;DHT22;20485;50.992;5.550;2023-07-13T03:21:48;13.80;99.90
33927;DHT22;20485;50.992;5.550;2023-07-13T03:24:13;13.80;99.90
33927;DHT22;20485;50.992;5.550;2023-07-13T03:26:39;13.80;99.90
33927;DHT22;20485;50.992;5.550;2023-07-13T03:29:05;13.80;99.90
33927;DHT22;20485;50.992;5.550;2023-07-13T03:31:34;13.90;99.90
33927;DHT22;20485;50.992;5.550;2023-07-13T03:34:00;13.90;99.90
33927;DHT22;20485;50.992;5.550;2023-07-13T03:36:28;13.90;99.90
33927;DHT22;20485;50.992;5.550;2023-07-13T03:38:57;14.00;99.90
33927;DHT22;20485;50.992;5.550;2023-07-13T03:41:24;14.00;99.90
33927;DHT22;20485;50.992;5.550;2023-07-13T03:43:50;14.00;99.90
33927;DHT22;20485;50.992;5.550;2023-07-13T03:46:17;14.00;99.90
33927;DHT22;20485;50.992;5.550;2023-07-13T03:48:45;14.00;99.90
33927;DHT22;20485;50.992;5.550;2023-07-13T03:51:12;14.10;99.90
33927;DHT22;20485;50.992;5.550;2023-07-13T03:53:42;14.10;99.90
33927;DHT22;20485;50.992;5.550;2023-07-13T03:58:39;14.30;99.90
33927;DHT22;20485;50.992;5.550;2023-07-13T04:01:07;14.30;99.90
33927;DHT22;20485;50.992;5.550;2023-07-13T04:03:33;14.40;99.90
33927;DHT22;20485;50.992;5.550;2023-07-13T04:06:00;14.40;99.90
33927;DHT22;20485;50.992;5.550;2023-07-13T04:08:28;14.40;99.90
33927;DHT22;20485;50.992;5.550;2023-07-13T04:10:54;14.50;99.90
33927;DHT22;20485;50.992;5.550;2023-07-13T04:13:20;14.40;99.90
33927;DHT22;20485;50.992;5.550;2023-07-13T04:15:46;14.50;99.90
33927;DHT22;20485;50.992;5.550;2023-07-13T04:18:11;14.50;99.90
33927;DHT22;20485;50.992;5.550;2023-07-13T04:20:37;14.50;99.90
33927;DHT22;20485;50.992;5.550;2023-07-13T04:23:03;14.60;99.90
33927;DHT22;20485;50.992;5.550;2023-07-13T04:25:29;14.60;99.90
33927;DHT22;20485;50.992;5.550;2023-07-13T04:27:55;14.60;99.90
33927;DHT22;20485;50.992;5.550;2023-07-13T04:30:21;14.60;99.90
33927;DHT22;20485;50.992;5.550;2023-07-13T04:32:47;14.70;99.90
33927;DHT22;20485;50.992;5.550;2023-07-13T04:35:12;14.70;99.90
33927;DHT22;20485;50.992;5.550;2023-07-13T04:37:40;14.70;99.90
33927;DHT22;20485;50.992;5.550;2023-07-13T04:40:06;14.70;99.90
33927;DHT22;20485;50.992;5.550;2023-07-13T04:42:31;14.70;99.90
33927;DHT22;20485;50.992;5.550;2023-07-13T04:44:59;14.80;99.90
33927;DHT22;20485;50.992;5.550;2023-07-13T04:47:25;14.80;99.90
33927;DHT22;20485;50.992;5.550;2023-07-13T04:49:51;14.80;99.90
33927;DHT22;20485;50.992;5.550;2023-07-13T04:52:16;14.90;99.90
33927;DHT22;20485;50.992;5.550;2023-07-13T04:54:42;14.90;99.90
33927;DHT22;20485;50.992;5.550;2023-07-13T04:57:08;15.00;99.90
